Time;durP1;ratioP1;P1;durP2;ratioP2;P2;SDS_P1;SDS_P2;PMS_P1;PMS_P2;Temp;Humidity;BMP_temperature;BMP_pressure;BME280_temperature;BME280_humidity;BME280_pressure;Samples;Min_cycle;Max_cycle;Signal;HPM_P1;HPM_P2
2021/06/23 00:01:41;;;;;;;10.40;6.62;;;;;;;23.06;73.43;100976.70;1878535;76;21096;-61
2021/06/23 00:04:10;;;;;;;9.85;6.35;;;;;;;23.04;73.46;100970.62;1878577;76;21033;-61
2021/06/23 00:06:39;;;;;;;12.00;7.12;;;;;;;23.02;73.47;100960.48;1878695;76;21042;-61
2021/06/23 00:09:08;;;;;;;10.08;6.15;;;;;;;22.97;73.47;100961.88;1878680;76;21158;-61
2021/06/23 00:11:40;;;;;;;11.63;5.47;;;;;;;22.92;73.51;100963.61;1878777;76;21560;-61
2021/06/23 00:14:09;;;;;;;9.53;6.72;;;;;;;22.87;73.56;100965.84;1878679;76;21487;-61
2021/06/23 00:16:38;;;;;;;8.73;5.97;;;;;;;22.82;73.72;100964.08;1878625;76;21558;-61
2021/06/23 00:19:06;;;;;;;13.62;6.25;;;;;;;22.75;73.90;100959.22;1878749;76;21054;-61
2021/06/23 00:21:36;;;;;;;9.78;6.17;;;;;;;22.71;73.97;100954.27;1878743;76;21037;-61
2021/06/23 00:24:05;;;;;;;9.68;7.03;;;;;;;22.67;74.13;100960.89;1878748;76;21483;-61
2021/06/23 00:26:35;;;;;;;10.72;6.58;;;;;;;22.61;74.30;100958.25;1878822;76;21076;-60
2021/06/23 00:29:05;;;;;;;10.25;6.33;;;;;;;22.57;74.42;100962.16;1878633;76;21103;-61
2021/06/23 00:31:35;;;;;;;29.70;7.92;;;;;;;22.52;74.80;100963.04;1876666;76;21069;-61
2021/06/23 00:34:05;;;;;;;23.73;7.00;;;;;;;22.48;74.93;100962.48;1876545;76;20998;-60
2021/06/23 00:36:33;;;;;;;26.52;7.80;;;;;;;22.46;74.96;100967.60;1876550;76;21017;-61
2021/06/23 00:39:02;;;;;;;13.38;6.78;;;;;;;22.45;75.05;100965.92;1876571;76;21049;-61
2021/06/23 00:41:31;;;;;;;9.58;6.80;;;;;;;22.41;75.12;100960.44;1876468;76;21099;-61
2021/06/23 00:44:00;;;;;;;9.20;6.05;;;;;;;22.33;75.44;100972.66;1876596;76;21425;-61
2021/06/23 00:46:30;;;;;;;11.95;7.00;;;;;;;22.28;75.68;100974.91;1876720;76;21466;-61
2021/06/23 00:49:01;;;;;;;11.03;5.92;;;;;;;22.23;75.85;100974.41;1876161;76;21483;-61
2021/06/23 00:51:34;;;;;;;10.50;6.40;;;;;;;22.19;76.03;100972.98;1874300;76;21081;-61
2021/06/23 00:54:10;;;;;;;9.55;6.80;;;;;;;22.14;76.21;100971.17;1864663;76;21096;-61
2021/06/23 00:56:40;;;;;;;11.38;6.97;;;;;;;22.08;76.44;100977.90;1876658;76;20997;-61
2021/06/23 00:59:10;;;;;;;14.80;6.95;;;;;;;22.05;76.48;100986.69;1876555;76;21014;-61
2021/06/23 01:01:42;;;;;;;13.53;7.28;;;;;;;22.01;76.54;100981.23;1876582;76;21151;-60
2021/06/23 01:04:14;;;;;;;10.80;6.60;;;;;;;21.94;76.89;100991.10;1876666;76;21035;-61
2021/06/23 01:06:44;;;;;;;11.15;6.62;;;;;;;21.88;77.19;100983.58;1876131;76;21563;-60
2021/06/23 01:09:15;;;;;;;10.25;6.67;;;;;;;21.85;77.29;100985.16;1876854;76;21441;-61
2021/06/23 01:12:05;;;;;;;12.47;6.75;;;;;;;21.83;77.57;100985.78;1876702;76;21005;-61
2021/06/23 01:14:36;;;;;;;10.68;6.65;;;;;;;21.83;77.51;100983.10;1875889;76;21018;-61
2021/06/23 01:17:06;;;;;;;9.38;6.35;;;;;;;21.82;77.56;100981.88;1876492;76;21170;-61
2021/06/23 01:19:44;;;;;;;11.15;7.20;;;;;;;21.84;77.56;100983.48;1876664;76;20990;-60
2021/06/23 01:22:22;;;;;;;10.25;6.30;;;;;;;21.83;77.61;100979.08;1876575;76;21508;-61
2021/06/23 01:24:46;;;;;;;8.73;6.25;;;;;;;21.81;77.44;100971.66;1875222;76;21181;-60
2021/06/23 01:27:15;;;;;;;13.08;7.12;;;;;;;21.81;77.46;100978.36;1876562;76;21022;-61
2021/06/23 01:29:44;;;;;;;11.30;7.00;;;;;;;21.79;77.49;100977.64;1876446;76;21428;-61
2021/06/23 01:32:18;;;;;;;11.75;6.22;;;;;;;21.78;77.36;100982.63;1868617;76;21568;-61
2021/06/23 01:34:47;;;;;;;10.08;6.92;;;;;;;21.77;77.32;100979.60;1887928;76;21456;-60
2021/06/23 01:37:16;;;;;;;14.13;7.92;;;;;;;21.76;77.33;100981.91;1887979;76;21098;-61
2021/06/23 01:39:45;;;;;;;9.78;6.35;;;;;;;21.73;77.50;100987.54;1887901;76;21033;-61
2021/06/23 01:42:14;;;;;;;9.35;6.33;;;;;;;21.71;77.56;100986.32;1887947;76;21468;-61
2021/06/23 01:44:43;;;;;;;15.48;6.87;;;;;;;21.67;77.77;100990.70;1888061;76;21456;-61
2021/06/23 01:47:12;;;;;;;13.98;8.83;;;;;;;21.64;77.87;100986.95;1888029;76;21541;-60
2021/06/23 01:49:41;;;;;;;11.78;7.15;;;;;;;21.61;77.86;100984.52;1888185;76;21477;-61
2021/06/23 01:52:11;;;;;;;13.38;7.50;;;;;;;21.57;77.95;100982.58;1887943;76;21053;-61
2021/06/23 01:54:44;;;;;;;12.47;7.53;;;;;;;21.51;78.04;100991.97;1887893;76;21100;-60
2021/06/23 01:57:14;;;;;;;10.23;6.70;;;;;;;21.49;78.08;100990.40;1888031;76;21037;-61
2021/06/23 01:59:46;;;;;;;11.00;7.03;;;;;;;21.47;78.06;101001.70;1888168;76;21014;-61
2021/06/23 02:02:22;;;;;;;13.53;7.12;;;;;;;21.45;77.99;101001.84;1870375;76;21045;-61
2021/06/23 02:04:55;;;;;;;10.60;7.08;;;;;;;21.44;77.90;101001.44;1886924;76;21082;-61
2021/06/23 02:07:31;;;;;;;13.28;7.40;;;;;;;21.46;77.90;101003.53;1888031;76;21017;-60
2021/06/23 02:10:27;;;;;;;11.12;7.78;;;;;;;21.46;77.89;101006.71;1886231;76;21017;-61
2021/06/23 02:13:42;;;;;;;14.78;7.83;;;;;;;21.47;77.96;101008.39;1883258;76;21074;-61
2021/06/23 02:16:29;;;;;;;11.40;6.42;;;;;;;21.46;77.87;101004.88;1859172;76;21512;-60
2021/06/23 02:19:07;;;;;;;12.25;6.72;;;;;;;21.43;77.71;100998.38;1887867;76;21432;-61
2021/06/23 02:21:44;;;;;;;13.83;6.60;;;;;;;21.43;77.65;101004.23;1884676;76;21077;-61
2021/06/23 02:24:14;;;;;;;10.45;6.80;;;;;;;21.43;77.55;100999.72;1887788;76;21013;-61
2021/06/23 02:26:46;;;;;;;12.07;6.45;;;;;;;21.43;77.52;101002.41;1886814;76;21081;-60
2021/06/23 02:29:15;;;;;;;12.88;6.25;;;;;;;21.43;77.49;101001.06;1887993;76;21045;-61
2021/06/23 02:31:45;;;;;;;11.43;6.35;;;;;;;21.44;77.43;101000.09;1883491;76;21590;-60
2021/06/23 02:34:16;;;;;;;14.23;7.60;;;;;;;21.44;77.40;100998.77;1876423;76;21049;-61
2021/06/23 02:36:47;;;;;;;12.63;7.15;;;;;;;21.45;77.50;101009.02;1870552;76;21604;-61
2021/06/23 02:39:18;;;;;;;13.62;6.72;;;;;;;21.46;77.38;101004.88;1876492;76;21484;-61
2021/06/23 02:41:47;;;;;;;11.00;6.03;;;;;;;21.49;77.31;101007.81;1876631;76;20994;-63
2021/06/23 02:44:16;;;;;;;11.55;6.33;;;;;;;21.50;77.19;101010.34;1876643;76;21456;-61
2021/06/23 02:46:45;;;;;;;11.57;6.37;;;;;;;21.55;77.04;101014.84;1876406;76;21037;-61
2021/06/23 02:49:19;;;;;;;12.35;6.12;;;;;;;21.57;76.85;101021.42;1875223;76;21065;-60
2021/06/23 02:51:50;;;;;;;10.63;6.30;;;;;;;21.61;76.68;101026.05;1876518;76;21077;-61
2021/06/23 02:54:20;;;;;;;12.70;6.58;;;;;;;21.66;76.57;101039.44;1876515;76;21452;-61
2021/06/23 02:56:54;;;;;;;11.48;6.10;;;;;;;21.70;76.46;101030.16;1873024;76;21152;-62
2021/06/23 02:59:25;;;;;;;12.63;6.72;;;;;;;21.80;76.36;101027.60;1876449;76;21017;-61
2021/06/23 03:01:55;;;;;;;12.40;6.70;;;;;;;21.90;76.31;101027.19;1876599;76;21132;-60
2021/06/23 03:04:25;;;;;;;10.90;6.62;;;;;;;22.02;76.14;101025.81;1876561;76;21092;-61
2021/06/23 03:07:10;;;;;;;11.65;7.12;;;;;;;22.17;76.10;101027.23;1873987;76;21066;-60
2021/06/23 03:09:42;;;;;;;11.03;6.40;;;;;;;22.35;76.12;101017.67;1876542;76;21072;-61
2021/06/23 03:12:14;;;;;;;10.30;5.83;;;;;;;22.46;75.63;101014.55;1870976;76;21143;-60
2021/06/23 03:14:51;;;;;;;11.70;5.60;;;;;;;22.49;75.17;101016.98;1875465;76;21700;-61
2021/06/23 03:17:17;;;;;;;10.40;6.40;;;;;;;22.53;74.90;101013.89;1876732;76;20994;-61
2021/06/23 03:19:49;;;;;;;9.15;5.92;;;;;;;22.66;74.77;101006.98;1876428;76;21053;-60
2021/06/23 03:22:18;;;;;;;13.40;6.45;;;;;;;22.76;74.65;101013.78;1876400;76;21116;-60
2021/06/23 03:24:47;;;;;;;9.58;6.65;;;;;;;22.82;74.46;101017.77;1876508;76;21017;-60
2021/06/23 03:27:21;;;;;;;12.35;6.12;;;;;;;22.96;74.48;101017.39;1876514;76;21151;-60
2021/06/23 03:29:48;;;;;;;16.45;6.87;;;;;;;23.03;74.25;101019.91;1876051;76;21053;-60
2021/06/23 03:32:22;;;;;;;12.53;6.67;;;;;;;23.11;74.13;101025.50;1876341;76;21468;-60
2021/06/23 03:34:49;;;;;;;15.13;6.83;;;;;;;23.22;73.98;101016.97;1870295;76;21046;-60
2021/06/23 03:37:18;;;;;;;11.48;5.75;;;;;;;23.37;74.05;101016.98;1876540;76;21457;-60
2021/06/23 03:39:47;;;;;;;10.68;5.00;;;;;;;23.59;73.90;101017.26;1876497;76;21042;-61
2021/06/23 03:42:19;;;;;;;11.22;5.67;;;;;;;23.77;73.34;101012.03;1876679;76;21017;-60
2021/06/23 03:44:48;;;;;;;;;;;;;;;23.96;72.62;101017.11;1879416;76;21022;-60
2021/06/23 03:47:18;;;;;;;9.38;4.67;;;;;;;24.12;72.45;101015.22;1876050;76;20146;-61
2021/06/23 03:49:48;;;;;;;6.62;4.97;;;;;;;24.28;71.95;101017.69;1876675;76;21115;-60
2021/06/23 03:52:17;;;;;;;8.68;4.83;;;;;;;24.36;70.82;101009.40;1876658;76;21044;-60
2021/06/23 03:54:46;;;;;;;10.32;5.60;;;;;;;24.36;69.64;101013.44;1876547;76;21501;-60
2021/06/23 03:57:16;;;;;;;8.78;5.03;;;;;;;24.43;69.29;101014.56;1876595;76;21456;-60
2021/06/23 03:59:51;;;;;;;8.83;4.78;;;;;;;24.54;68.69;101014.94;1876592;76;21124;-60
2021/06/23 04:02:16;;;;;;;14.33;5.50;;;;;;;24.66;68.78;101009.25;1875777;76;21026;-60
2021/06/23 04:04:46;;;;;;;7.17;5.03;;;;;;;24.84;68.60;101009.36;1876680;76;21053;-60
2021/06/23 04:07:19;;;;;;;10.35;4.30;;;;;;;25.14;68.43;101013.27;1867292;76;21491;-60
2021/06/23 04:09:48;;;;;;;12.53;5.17;;;;;;;25.34;67.44;101024.36;1876584;76;21042;-60
2021/06/23 04:12:18;;;;;;;8.00;5.00;;;;;;;25.47;66.97;101017.75;1875133;76;21168;-61
2021/06/23 04:14:49;;;;;;;9.38;4.97;;;;;;;25.56;66.14;101019.55;1876441;76;21089;-60
2021/06/23 04:17:18;;;;;;;10.65;4.70;;;;;;;25.51;65.59;101026.75;1876657;76;21433;-60
2021/06/23 04:19:48;;;;;;;7.67;5.30;;;;;;;25.53;65.33;101021.22;1876626;76;21119;-60
2021/06/23 04:22:18;;;;;;;11.65;4.92;;;;;;;25.66;65.24;101017.65;1874825;76;21596;-60
2021/06/23 04:24:48;;;;;;;9.60;5.53;;;;;;;25.92;65.15;101015.56;1876594;76;21074;-60
2021/06/23 04:27:17;;;;;;;14.28;7.42;;;;;;;26.20;64.49;101013.14;1876758;76;21448;-61
2021/06/23 04:29:46;;;;;;;15.38;6.22;;;;;;;26.48;63.33;101016.23;1876716;76;21061;-60
2021/06/23 04:32:15;;;;;;;13.72;5.78;;;;;;;26.77;63.09;101026.27;1876529;76;21021;-60
2021/06/23 04:34:45;;;;;;;8.58;5.12;;;;;;;27.06;62.01;101018.85;1877861;76;21068;-60
2021/06/23 04:37:24;;;;;;;13.85;4.97;;;;;;;27.27;61.13;101019.30;1877302;76;21103;-60
2021/06/23 04:42:46;;;;;;;12.60;4.87;;;;;;;27.72;59.95;101024.88;1910895;75;21075;-60
2021/06/23 04:45:16;;;;;;;10.48;5.30;;;;;;;27.89;59.52;101025.78;1911307;75;21085;-60
2021/06/23 04:47:49;;;;;;;9.85;5.12;;;;;;;28.02;59.50;101030.71;1909761;75;21138;-60
2021/06/23 04:50:19;;;;;;;13.15;4.90;;;;;;;28.07;58.93;101024.30;1911278;75;21086;-60
2021/06/23 04:53:05;;;;;;;14.58;5.45;;;;;;;28.00;58.22;101025.98;1910099;75;21129;-60
2021/06/23 04:55:34;;;;;;;16.85;5.42;;;;;;;27.97;58.09;101024.11;1911310;75;21422;-60
2021/06/23 04:58:07;;;;;;;11.20;5.37;;;;;;;27.66;57.83;101026.87;1910585;75;21059;-60
2021/06/23 05:00:36;;;;;;;10.85;5.40;;;;;;;27.23;58.14;101031.42;1911430;75;20995;-60
2021/06/23 05:03:05;;;;;;;13.10;8.38;;;;;;;27.14;58.48;101032.39;1911317;75;21120;-60
2021/06/23 05:05:34;;;;;;;21.82;14.18;;;;;;;27.30;58.90;101026.26;1911146;75;21023;-61
2021/06/23 05:08:03;;;;;;;12.43;6.00;;;;;;;27.52;58.58;101024.83;1911208;75;21108;-60
2021/06/23 05:10:32;;;;;;;18.05;5.40;;;;;;;27.78;58.13;101026.55;1911066;75;21027;-61
2021/06/23 05:13:01;;;;;;;12.20;5.17;;;;;;;27.97;57.33;101023.59;1911415;75;21097;-60
2021/06/23 05:15:30;;;;;;;12.28;5.03;;;;;;;28.10;56.37;101014.98;1911169;75;21521;-60
2021/06/23 05:17:59;;;;;;;15.05;4.53;;;;;;;28.39;56.27;101014.48;1911202;75;21026;-61
2021/06/23 05:20:28;;;;;;;7.55;4.28;;;;;;;28.73;55.59;101016.16;1911126;75;21129;-60
2021/06/23 05:22:57;;;;;;;9.93;4.50;;;;;;;29.01;55.77;101016.61;1911096;75;21015;-61
2021/06/23 05:25:25;;;;;;;34.48;22.85;;;;;;;29.31;55.31;101019.58;1911169;75;21010;-61
2021/06/23 05:27:54;;;;;;;46.42;34.48;;;;;;;29.48;54.21;101014.92;1911294;75;20987;-60
2021/06/23 05:30:23;;;;;;;69.62;51.63;;;;;;;29.45;53.64;101024.75;1911188;75;21108;-60
2021/06/23 05:32:52;;;;;;;8.33;4.87;;;;;;;29.42;53.56;101025.97;1911179;75;21006;-60
2021/06/23 05:35:21;;;;;;;13.70;7.87;;;;;;;29.52;52.57;101024.38;1911133;75;21034;-62
2021/06/23 05:37:50;;;;;;;15.93;11.48;;;;;;;29.46;52.70;101021.03;1911073;75;21516;-60
2021/06/23 05:40:19;;;;;;;10.15;5.17;;;;;;;29.45;52.55;101028.34;1911135;75;21015;-60
2021/06/23 05:42:48;;;;;;;15.40;8.90;;;;;;;29.57;52.63;101027.42;1909487;75;21074;-60
2021/06/23 05:45:17;;;;;;;12.07;6.22;;;;;;;29.68;52.25;101033.45;1909043;75;21011;-60
2021/06/23 05:47:46;;;;;;;12.88;7.62;;;;;;;29.54;51.69;101027.76;1908986;75;21092;-60
2021/06/23 05:50:16;;;;;;;9.30;5.83;;;;;;;29.10;52.13;101022.83;1908877;75;21477;-60
2021/06/23 05:52:45;;;;;;;26.80;18.25;;;;;;;28.63;52.87;101024.99;1908969;75;21039;-60
2021/06/23 05:55:20;;;;;;;16.45;9.88;;;;;;;28.37;53.43;101028.70;1908922;75;21007;-60
2021/06/23 05:57:44;;;;;;;10.88;4.40;;;;;;;28.34;53.71;101027.67;1908028;75;21035;-60
2021/06/23 06:00:14;;;;;;;9.98;4.30;;;;;;;28.59;53.74;101035.81;1909113;75;21031;-61
2021/06/23 06:02:42;;;;;;;11.90;5.40;;;;;;;28.54;53.09;101040.92;1908783;75;21011;-61
2021/06/23 06:05:11;;;;;;;17.50;6.90;;;;;;;28.38;53.44;101035.80;1908969;75;21015;-61
2021/06/23 06:07:40;;;;;;;17.77;7.70;;;;;;;28.30;53.91;101032.58;1908954;75;21105;-61
2021/06/23 06:10:10;;;;;;;14.70;6.67;;;;;;;28.32;54.61;101037.00;1909054;75;21007;-61
2021/06/23 06:12:39;;;;;;;13.80;8.00;;;;;;;28.46;54.21;101031.75;1908946;75;21077;-60
2021/06/23 06:15:09;;;;;;;19.37;6.00;;;;;;;28.81;54.49;101032.41;1908787;75;21078;-60
2021/06/23 06:17:38;;;;;;;25.25;12.82;;;;;;;29.20;53.90;101018.09;1908957;75;21088;-60
2021/06/23 06:20:08;;;;;;;12.43;6.40;;;;;;;29.14;53.84;101026.07;1909135;75;21085;-60
2021/06/23 06:22:37;;;;;;;11.97;6.45;;;;;;;29.12;54.08;101032.98;1908938;75;21059;-60
2021/06/23 06:25:07;;;;;;;10.15;6.08;;;;;;;29.38;54.25;101033.27;1908954;75;21027;-60
2021/06/23 06:27:35;;;;;;;13.50;6.80;;;;;;;29.66;53.38;101022.80;1908964;75;21026;-61
2021/06/23 06:30:05;;;;;;;14.35;8.40;;;;;;;29.97;53.84;101033.66;1908961;75;21004;-61
2021/06/23 06:32:34;;;;;;;12.60;6.10;;;;;;;30.36;53.42;101024.56;1909021;75;21018;-61
2021/06/23 06:35:04;;;;;;;15.15;8.10;;;;;;;30.52;52.44;101034.94;1909040;75;21015;-60
2021/06/23 06:37:33;;;;;;;9.85;5.58;;;;;;;30.37;52.25;101030.30;1908936;75;21085;-61
2021/06/23 06:40:02;;;;;;;14.50;7.08;;;;;;;30.16;52.61;101042.34;1908857;75;21450;-62
2021/06/23 06:42:31;;;;;;;15.55;8.38;;;;;;;29.78;52.87;101041.73;1909692;75;21199;-61
2021/06/23 06:45:00;;;;;;;9.48;5.90;;;;;;;29.39;53.48;101044.45;1911255;75;21058;-60
2021/06/23 06:47:28;;;;;;;10.20;5.67;;;;;;;29.01;54.19;101040.14;1911100;75;21155;-60
2021/06/23 06:49:57;;;;;;;12.88;6.33;;;;;;;28.83;54.80;101034.44;1911017;75;21007;-61
2021/06/23 06:52:26;;;;;;;11.93;5.55;;;;;;;28.85;55.29;101029.69;1910649;75;21100;-61
2021/06/23 06:54:55;;;;;;;13.58;6.37;;;;;;;28.70;55.56;101032.77;1911028;75;21089;-61
2021/06/23 06:57:24;;;;;;;12.50;6.37;;;;;;;28.52;55.92;101041.56;1911271;75;21018;-61
2021/06/23 06:59:52;;;;;;;13.45;5.85;;;;;;;28.34;56.29;101052.05;1911185;75;21023;-61
2021/06/23 07:02:21;;;;;;;12.40;5.83;;;;;;;28.11;56.84;101052.72;1911086;75;21007;-62
2021/06/23 07:04:50;;;;;;;12.58;6.37;;;;;;;27.87;57.11;101044.53;1911241;75;21010;-62
2021/06/23 07:07:19;;;;;;;13.00;6.15;;;;;;;27.73;57.75;101046.84;1911028;75;21050;-61
2021/06/23 07:09:50;;;;;;;14.33;6.67;;;;;;;27.59;58.22;101048.82;1911134;75;21007;-61
2021/06/23 07:12:19;;;;;;;19.87;5.87;;;;;;;27.47;58.64;101047.45;1910952;74;21120;-61
2021/06/23 07:14:48;;;;;;;17.02;7.40;;;;;;;27.43;59.04;101050.14;1911103;75;21109;-61
2021/06/23 07:17:17;;;;;;;15.55;6.87;;;;;;;27.30;59.68;101047.89;1911070;75;21023;-61
2021/06/23 07:19:45;;;;;;;18.50;11.85;;;;;;;27.22;59.96;101056.75;1911213;75;21055;-61
2021/06/23 07:22:14;;;;;;;15.10;7.45;;;;;;;27.11;60.54;101069.19;1911115;75;21022;-61
2021/06/23 07:24:43;;;;;;;20.20;8.70;;;;;;;26.94;61.22;101074.48;1911123;75;21015;-61
2021/06/23 07:27:12;;;;;;;14.85;7.05;;;;;;;26.78;61.87;101074.37;1911133;75;21034;-61
2021/06/23 07:29:40;;;;;;;12.35;6.55;;;;;;;26.68;62.27;101069.08;1911130;75;21039;-62
2021/06/23 07:32:14;;;;;;;13.00;6.85;;;;;;;26.77;62.31;101059.19;1911019;75;21074;-63
2021/06/23 07:37:16;;;;;;;11.83;6.37;;;;;;;27.40;61.40;101059.92;1911197;74;21042;-61
2021/06/23 07:39:45;;;;;;;9.63;5.70;;;;;;;28.04;59.93;101046.27;1911114;75;21357;-61
2021/06/23 07:42:14;;;;;;;12.37;6.05;;;;;;;29.13;59.02;101054.19;1911063;75;21010;-61
2021/06/23 07:45:00;;;;;;;10.08;5.78;;;;;;;30.23;57.27;101052.82;1908718;75;21043;-62
2021/06/23 07:47:32;;;;;;;14.15;6.95;;;;;;;31.04;54.72;101046.34;1908989;75;21038;-61
2021/06/23 07:49:59;;;;;;;8.50;5.12;;;;;;;31.40;53.32;101043.36;1908534;75;21007;-61
2021/06/23 07:52:46;;;;;;;9.38;5.50;;;;;;;31.63;51.58;101045.97;1908855;75;21019;-61
2021/06/23 08:08:49;;;;;;;10.30;5.10;;;;;;;33.22;46.39;101037.56;1908853;75;21454;-61
2021/06/23 08:13:49;;;;;;;12.45;4.97;;;;;;;33.60;45.72;101038.44;1908860;75;20983;-62
2021/06/23 08:16:18;;;;;;;11.85;4.60;;;;;;;33.55;45.34;101028.14;1908822;75;21438;-61
2021/06/23 08:18:47;;;;;;;8.85;4.45;;;;;;;32.87;45.21;101021.18;1908947;75;20991;-61
2021/06/23 08:21:16;;;;;;;12.45;5.67;;;;;;;32.27;46.00;101026.97;1908843;75;21114;-61
2021/06/23 08:23:44;;;;;;;10.35;4.97;;;;;;;31.86;46.81;101022.68;1908926;75;21109;-61
2021/06/23 08:26:13;;;;;;;10.43;5.15;;;;;;;31.85;47.14;101020.45;1908881;75;21031;-61
2021/06/23 08:28:42;;;;;;;13.55;5.45;;;;;;;31.77;47.76;101018.39;1908834;75;21007;-61
2021/06/23 08:31:12;;;;;;;10.08;5.35;;;;;;;31.85;48.30;101018.26;1909123;75;21003;-61
2021/06/23 08:33:41;;;;;;;9.50;4.97;;;;;;;31.85;48.52;101015.01;1909042;75;21105;-61
2021/06/23 08:36:10;;;;;;;10.45;5.50;;;;;;;31.82;48.83;101020.03;1909013;75;21599;-61
2021/06/23 08:38:39;;;;;;;14.13;5.22;;;;;;;31.85;48.94;101024.53;1909097;75;21019;-61
2021/06/23 08:41:07;;;;;;;11.15;4.87;;;;;;;31.86;48.94;101022.16;1908832;75;21015;-61
2021/06/23 08:43:36;;;;;;;11.83;5.58;;;;;;;31.86;49.24;101019.95;1908879;75;21157;-61
2021/06/23 08:46:05;;;;;;;10.60;5.33;;;;;;;31.77;48.82;101021.11;1908939;75;21022;-61
2021/06/23 08:48:34;;;;;;;15.30;6.33;;;;;;;32.03;48.36;101017.32;1908953;75;21157;-61
2021/06/23 08:51:06;;;;;;;10.25;5.47;;;;;;;32.59;48.58;101012.50;1908937;75;21027;-61
2021/06/23 08:53:35;;;;;;;14.03;5.70;;;;;;;33.00;47.40;101005.42;1907219;75;20991;-62
2021/06/23 08:56:06;;;;;;;19.17;5.40;;;;;;;33.32;46.65;101008.00;1909022;75;21059;-61
2021/06/23 08:58:35;;;;;;;9.43;4.65;;;;;;;33.66;46.04;101008.97;1909072;75;21007;-62
2021/06/23 09:01:05;;;;;;;14.40;5.37;;;;;;;33.73;44.77;101008.47;1909014;75;21038;-61
2021/06/23 09:03:53;;;;;;;9.73;4.47;;;;;;;33.72;45.18;101001.88;1908897;75;21458;-61
2021/06/23 09:06:24;;;;;;;8.75;4.28;;;;;;;33.80;44.51;100999.77;1908880;75;21507;-61
2021/06/23 09:08:53;;;;;;;13.93;4.40;;;;;;;33.62;43.86;101009.03;1905565;75;21079;-61
2021/06/23 09:11:22;;;;;;;10.05;4.67;;;;;;;33.59;44.34;100999.38;1908968;75;21117;-61
2021/06/23 09:13:50;;;;;;;11.55;5.37;;;;;;;33.42;43.82;100998.92;1908845;75;21070;-61
2021/06/23 09:16:19;;;;;;;9.98;5.22;;;;;;;33.15;44.50;100996.59;1908962;75;21045;-63
2021/06/23 09:18:48;;;;;;;16.57;6.97;;;;;;;33.07;45.14;100994.85;1908949;75;21007;-61
2021/06/23 09:21:18;;;;;;;10.45;5.12;;;;;;;32.97;45.19;100995.73;1909086;75;21081;-61
2021/06/23 09:23:54;;;;;;;17.17;5.55;;;;;;;32.90;45.42;100994.84;1909044;75;21051;-62
2021/06/23 09:26:26;;;;;;;9.00;5.40;;;;;;;33.13;44.84;100993.77;1908989;75;21503;-61
2021/06/23 09:29:18;;;;;;;18.37;5.58;;;;;;;33.29;45.11;100987.92;1908915;75;21035;-62
2021/06/23 09:32:02;;;;;;;17.42;5.72;;;;;;;32.98;44.54;100990.61;1909001;75;21011;-61
2021/06/23 09:34:39;;;;;;;16.62;5.80;;;;;;;32.60;45.19;100982.82;1909070;75;21018;-61
2021/06/23 09:37:27;;;;;;;11.68;5.00;;;;;;;32.30;45.75;100985.72;1908961;75;21039;-61
2021/06/23 09:40:18;;;;;;;17.12;5.97;;;;;;;32.46;46.41;100982.37;1908089;75;21105;-61
2021/06/23 09:42:49;;;;;;;14.13;5.90;;;;;;;32.85;45.73;100977.74;1903985;74;21449;-61
2021/06/23 09:45:20;;;;;;;14.25;6.30;;;;;;;33.24;45.38;100973.55;1910292;74;21031;-61
2021/06/23 09:47:49;;;;;;;19.45;6.03;;;;;;;33.45;44.31;100979.37;1911178;75;21084;-61
2021/06/23 09:50:27;;;;;;;19.50;6.10;;;;;;;33.36;44.09;100977.05;1911142;75;21090;-61
2021/06/23 09:53:01;;;;;;;18.23;5.85;;;;;;;33.20;44.24;100976.37;1911180;75;21077;-61
2021/06/23 09:55:45;;;;;;;14.18;5.92;;;;;;;33.31;44.34;100971.36;1911164;75;21007;-61
2021/06/23 09:58:25;;;;;;;18.87;5.20;;;;;;;33.43;44.55;100977.38;1911075;75;21011;-61
2021/06/23 10:01:08;;;;;;;15.70;5.70;;;;;;;33.59;44.17;100971.25;1910919;75;21051;-60
2021/06/23 10:03:58;;;;;;;14.75;5.78;;;;;;;33.75;44.54;100979.06;1911227;75;21081;-61
2021/06/23 10:06:32;;;;;;;14.80;5.90;;;;;;;33.77;44.94;100976.98;1911120;75;20983;-62
2021/06/23 10:09:24;;;;;;;21.05;5.72;;;;;;;33.54;44.85;100969.66;1911234;75;21010;-61
2021/06/23 10:12:06;;;;;;;18.83;6.20;;;;;;;33.32;44.90;100965.70;1911477;75;21011;-61
2021/06/23 10:14:45;;;;;;;18.27;5.97;;;;;;;33.09;45.50;100961.39;1911366;75;21348;-61
2021/06/23 10:17:14;;;;;;;19.23;5.83;;;;;;;32.79;45.45;100961.34;1911039;75;21638;-61
2021/06/23 10:19:43;;;;;;;13.32;5.12;;;;;;;32.48;45.48;100958.48;1911157;75;21515;-61
2021/06/23 10:22:12;;;;;;;15.90;6.05;;;;;;;32.27;45.79;100956.66;1911127;75;21113;-61
2021/06/23 10:24:43;;;;;;;19.37;5.47;;;;;;;32.23;47.17;100954.85;1911122;75;21823;-61
2021/06/23 10:27:12;;;;;;;18.37;5.53;;;;;;;32.27;47.33;100950.69;1911266;75;21011;-61
2021/06/23 10:29:42;;;;;;;18.20;5.60;;;;;;;32.23;47.18;100954.85;1911054;75;21617;-61
2021/06/23 10:32:11;;;;;;;16.45;6.28;;;;;;;31.99;47.44;100947.92;1911142;75;21051;-62
2021/06/23 10:34:41;;;;;;;14.63;5.83;;;;;;;31.79;47.72;100950.45;1911149;75;21446;-61
2021/06/23 10:37:10;;;;;;;17.30;6.50;;;;;;;31.73;47.97;100939.83;1911167;75;21116;-61
2021/06/23 10:39:40;;;;;;;16.67;5.28;;;;;;;32.08;48.32;100944.05;1911175;75;21543;-61
2021/06/23 10:42:10;;;;;;;13.65;5.53;;;;;;;32.32;47.12;100937.32;1911146;75;21453;-61
2021/06/23 10:44:43;;;;;;;23.18;5.67;;;;;;;32.47;46.55;100933.13;1911086;75;21230;-61
2021/06/23 10:47:29;;;;;;;14.45;5.80;;;;;;;32.57;46.12;100938.20;1911025;75;21066;-61
2021/06/23 10:49:59;;;;;;;20.50;5.17;;;;;;;32.49;46.09;100938.37;1910872;75;21088;-61
2021/06/23 10:52:33;;;;;;;16.90;6.25;;;;;;;32.38;46.13;100932.13;1910880;75;21454;-61
2021/06/23 10:55:10;;;;;;;14.55;5.28;;;;;;;32.33;46.37;100932.70;1908183;75;21159;-61
2021/06/23 10:57:45;;;;;;;16.77;6.05;;;;;;;32.05;46.20;100934.91;1910886;75;21038;-61
2021/06/23 11:00:27;;;;;;;18.10;6.30;;;;;;;31.96;46.57;100931.96;1911012;75;21100;-62
2021/06/23 11:02:52;;;;;;;16.77;5.67;;;;;;;31.93;47.16;100933.73;1909401;75;21058;-63
2021/06/23 11:05:22;;;;;;;17.65;6.58;;;;;;;32.02;47.06;100933.92;1910911;75;21019;-62
2021/06/23 11:07:55;;;;;;;17.52;5.92;;;;;;;32.10;47.60;100931.08;1911010;75;21527;-61
2021/06/23 11:10:34;;;;;;;13.50;5.20;;;;;;;32.24;47.53;100926.59;1911191;75;20987;-61
2021/06/23 11:13:01;;;;;;;14.35;5.55;;;;;;;32.32;46.88;100931.87;1910104;74;20987;-61
2021/06/23 11:15:35;;;;;;;15.63;6.00;;;;;;;32.40;46.80;100932.77;1910933;75;21106;-61
2021/06/23 11:21:17;;;;;;;12.37;5.00;;;;;;;32.46;46.53;100927.37;1998080;72;21493;-62
2021/06/23 11:24:01;;;;;;;14.63;5.47;;;;;;;32.43;46.23;100929.65;1998370;72;21095;-61
2021/06/23 11:26:33;;;;;;;16.73;5.25;;;;;;;32.43;46.00;100935.93;1998184;72;21084;-61
2021/06/23 11:29:14;;;;;;;12.35;5.70;;;;;;;32.27;46.26;100927.53;1998434;71;21096;-61
2021/06/23 11:31:51;;;;;;;16.60;5.90;;;;;;;32.21;46.47;100932.95;1998115;72;21019;-61
2021/06/23 11:34:43;;;;;;;15.30;5.80;;;;;;;32.14;46.02;100931.52;1998089;71;21122;-62
2021/06/23 11:37:14;;;;;;;14.10;5.97;;;;;;;32.11;47.10;100933.27;1998414;72;21100;-62
2021/06/23 11:39:44;;;;;;;16.60;5.28;;;;;;;31.97;47.37;100933.66;1996739;72;21026;-62
2021/06/23 11:42:14;;;;;;;15.50;4.83;;;;;;;31.91;47.41;100931.73;1998158;72;21074;-62
2021/06/23 11:44:43;;;;;;;20.43;5.42;;;;;;;31.84;47.07;100930.83;1998007;72;21166;-62
2021/06/23 11:47:12;;;;;;;20.68;5.58;;;;;;;31.73;47.14;100928.94;1998107;71;21535;-62
2021/06/23 11:49:42;;;;;;;15.50;5.70;;;;;;;31.68;48.01;100934.64;1998127;72;21426;-61
2021/06/23 11:52:12;;;;;;;23.10;6.25;;;;;;;31.69;47.46;100930.91;1998054;71;21096;-62
2021/06/23 11:54:41;;;;;;;19.65;6.25;;;;;;;31.68;48.16;100921.03;1998163;72;21080;-61
2021/06/23 11:57:10;;;;;;;20.72;6.00;;;;;;;31.71;47.51;100921.48;1997992;72;21034;-61
2021/06/23 11:59:43;;;;;;;17.90;6.75;;;;;;;31.65;46.97;100913.25;1998135;72;21039;-61
2021/06/23 12:02:09;;;;;;;20.23;6.35;;;;;;;31.60;47.09;100914.38;1998020;71;21108;-62
2021/06/23 12:04:38;;;;;;;15.58;5.53;;;;;;;31.49;47.30;100915.73;1998189;72;21086;-62